Time;durP1;ratioP1;P1;durP2;ratioP2;P2;SDS_P1;SDS_P2;PMS_P1;PMS_P2;Temp;Humidity;BMP_temperature;BMP_pressure;BME280_temperature;BME280_humidity;BME280_pressure;Samples;Min_cycle;Max_cycle;Signal;HPM_P1;HPM_P2
2022/05/31 00:02:19;;;;;;;7.93;3.70;;;;;;;9.67;100.00;98765.78;4244893;33;20038;-73
2022/05/31 00:04:46;;;;;;;4.72;3.92;;;;;;;9.83;100.00;98796.37;4247530;33;20050;-73
2022/05/31 00:07:13;;;;;;;4.93;3.85;;;;;;;9.76;100.00;98793.84;4250808;33;20050;-73
2022/05/31 00:09:46;;;;;;;8.55;4.05;;;;;;;9.63;100.00;98794.22;4247764;33;20063;-73
2022/05/31 00:12:13;;;;;;;6.32;4.40;;;;;;;9.65;100.00;98789.41;4244246;33;20038;-73
2022/05/31 00:14:39;;;;;;;5.68;3.70;;;;;;;9.40;100.00;98750.41;4256957;33;20428;-73
2022/05/31 00:17:06;;;;;;;7.87;3.53;;;;;;;9.22;100.00;98742.63;4253197;33;20416;-73
2022/05/31 00:19:38;;;;;;;4.90;4.05;;;;;;;9.65;100.00;98789.41;4257151;33;20072;-73
2022/05/31 00:22:14;;;;;;;9.38;3.70;;;;;;;9.68;100.00;98785.41;4255834;33;20056;-73
2022/05/31 00:24:41;;;;;;;5.80;4.40;;;;;;;9.87;100.00;98802.06;4255680;33;20076;-74
2022/05/31 00:27:09;;;;;;;5.37;3.58;;;;;;;9.78;100.00;98807.88;4254071;33;20042;-73
2022/05/31 00:29:36;;;;;;;6.85;3.50;;;;;;;9.84;100.00;98805.25;4250367;33;20482;-73
2022/05/31 00:32:07;;;;;;;5.87;3.87;;;;;;;9.68;100.00;98802.34;4242036;33;20050;-73
2022/05/31 00:34:37;;;;;;;6.22;3.33;;;;;;;9.79;100.00;98803.31;4250413;33;20068;-73
2022/05/31 00:37:04;;;;;;;7.28;3.97;;;;;;;9.68;100.00;98804.22;4247631;33;20055;-73
2022/05/31 00:39:30;;;;;;;7.93;3.60;;;;;;;9.66;100.00;98809.84;4242838;33;20054;-73
2022/05/31 00:42:04;;;;;;;7.30;4.28;;;;;;;9.62;100.00;98811.41;4242336;33;20393;-73
2022/05/31 00:44:32;;;;;;;5.75;4.62;;;;;;;9.67;100.00;98803.44;4229748;33;20050;-73
2022/05/31 00:47:00;;;;;;;5.90;4.03;;;;;;;9.63;100.00;98797.72;4240798;33;20385;-73
2022/05/31 00:49:52;;;;;;;6.10;4.05;;;;;;;9.68;100.00;98806.94;4229357;33;20051;-73
2022/05/31 00:52:24;;;;;;;7.87;4.07;;;;;;;9.54;100.00;98793.03;4229512;33;20105;-73
2022/05/31 00:54:57;;;;;;;5.32;3.65;;;;;;;9.77;100.00;98811.63;4249982;33;20038;-73
2022/05/31 00:57:24;;;;;;;7.20;4.07;;;;;;;9.79;100.00;98809.47;4249334;33;20042;-73
2022/05/31 00:59:56;;;;;;;8.20;4.00;;;;;;;9.44;100.00;98773.03;4249451;33;20060;-73
2022/05/31 01:02:24;;;;;;;5.87;4.05;;;;;;;9.55;100.00;98778.53;4247679;33;20060;-73
2022/05/31 01:04:57;;;;;;;9.20;3.40;;;;;;;9.81;100.00;98815.44;4247168;33;20065;-73
2022/05/31 01:07:23;;;;;;;;;;;;;;;9.74;100.00;98801.34;4238086;33;20174;-73
2022/05/31 01:09:50;;;;;;;10.60;4.25;;;;;;;9.87;100.00;98818.19;4256582;33;19974;-73
2022/05/31 01:12:22;;;;;;;;;;;;;;;9.68;100.00;98812.31;4255507;33;20473;-73
2022/05/31 01:15:01;;;;;;;8.80;4.45;;;;;;;9.79;100.00;98822.94;4243138;33;19941;-74
2022/05/31 01:17:42;;;;;;;6.75;3.78;;;;;;;9.64;100.00;98801.25;4236461;33;20054;-74
2022/05/31 01:20:17;;;;;;;6.03;4.05;;;;;;;9.73;100.00;98812.34;4250409;33;20083;-73
2022/05/31 01:23:01;;;;;;;5.12;3.92;;;;;;;9.76;100.00;98828.00;4243760;33;20050;-73
2022/05/31 01:25:41;;;;;;;12.48;4.12;;;;;;;9.55;100.00;98781.22;4241493;33;20060;-73
2022/05/31 01:28:37;;;;;;;12.20;5.10;;;;;;;9.74;100.00;98839.00;4242330;33;20051;-73
2022/05/31 01:31:42;;;;;;;7.93;4.53;;;;;;;9.77;100.00;98835.00;4241123;33;20050;-73
2022/05/31 01:34:29;;;;;;;8.25;4.85;;;;;;;9.75;100.00;98840.63;4240897;33;20072;-73
2022/05/31 01:36:57;;;;;;;8.02;4.50;;;;;;;9.67;100.00;98835.69;4241559;33;20424;-73
2022/05/31 01:39:41;;;;;;;7.65;4.93;;;;;;;9.46;100.00;98794.25;4241756;33;20047;-73
2022/05/31 01:42:23;;;;;;;9.80;4.70;;;;;;;9.78;100.00;98836.63;4232168;33;20062;-73
2022/05/31 01:44:56;;;;;;;;;;;;;;;9.88;100.00;98841.34;4241814;33;20046;-73
2022/05/31 01:47:22;;;;;;;9.00;4.37;;;;;;;9.90;100.00;98847.28;4234123;33;19973;-73
2022/05/31 01:49:51;;;;;;;5.32;4.05;;;;;;;9.49;100.00;98835.97;4253141;33;20076;-72
2022/05/31 01:52:19;;;;;;;10.15;4.87;;;;;;;9.74;100.00;98830.94;4235413;33;20407;-73
2022/05/31 01:54:46;;;;;;;8.52;5.62;;;;;;;9.43;100.00;98795.59;4251131;33;20487;-73
2022/05/31 01:57:16;;;;;;;8.40;5.65;;;;;;;9.36;100.00;98789.56;4256893;33;20042;-73
2022/05/31 01:59:47;;;;;;;10.10;5.72;;;;;;;9.49;100.00;98844.03;4255884;33;20042;-73
2022/05/31 02:02:17;;;;;;;9.82;6.40;;;;;;;9.34;100.00;98805.13;4254447;33;20060;-73
2022/05/31 02:04:45;;;;;;;9.13;5.40;;;;;;;9.45;100.00;98836.47;4255978;33;20051;-73
2022/05/31 02:07:17;;;;;;;8.88;5.60;;;;;;;9.47;100.00;98846.97;4254395;33;20077;-73
2022/05/31 02:09:47;;;;;;;13.75;6.00;;;;;;;9.20;100.00;98793.09;4254154;33;20037;-73
2022/05/31 02:12:16;;;;;;;11.20;6.45;;;;;;;9.23;100.00;98790.72;4255543;33;20054;-73
2022/05/31 02:14:44;;;;;;;13.75;5.97;;;;;;;9.48;100.00;98848.59;4256003;33;20041;-73
2022/05/31 02:17:11;;;;;;;11.50;5.65;;;;;;;9.50;100.00;98845.66;4253031;33;20088;-73
2022/05/31 02:19:45;;;;;;;12.27;5.68;;;;;;;9.41;100.00;98851.47;4243640;33;20060;-73
2022/05/31 02:22:16;;;;;;;9.77;6.00;;;;;;;9.51;100.00;98849.97;4232551;33;20056;-73
2022/05/31 02:24:42;;;;;;;7.40;5.55;;;;;;;9.39;100.00;98845.50;4255466;33;20035;-73
2022/05/31 02:27:10;;;;;;;13.73;6.35;;;;;;;9.20;100.00;98852.19;4254279;33;20105;-73
2022/05/31 02:29:41;;;;;;;8.68;5.90;;;;;;;8.99;100.00;98808.91;4249361;33;20058;-73
2022/05/31 02:32:10;;;;;;;15.63;5.65;;;;;;;8.99;100.00;98803.53;4228428;33;20034;-73
2022/05/31 02:34:42;;;;;;;10.48;5.72;;;;;;;9.28;100.00;98849.09;4228317;33;20072;-73
2022/05/31 02:37:11;;;;;;;14.73;5.95;;;;;;;9.14;100.00;98843.22;4226149;33;20023;-74
2022/05/31 02:39:38;;;;;;;9.70;5.28;;;;;;;9.22;100.00;98839.31;4241195;33;20076;-72
2022/05/31 02:42:05;;;;;;;9.93;6.30;;;;;;;9.18;100.00;98848.94;4245507;33;20046;-73
2022/05/31 02:44:33;;;;;;;14.77;6.07;;;;;;;9.05;100.00;98824.03;4237523;33;20058;-73
2022/05/31 02:47:01;;;;;;;12.75;5.75;;;;;;;9.03;100.00;98809.22;4252809;33;20042;-74
2022/05/31 02:49:27;;;;;;;12.55;5.90;;;;;;;9.22;100.00;98850.91;4242407;33;20075;-73
2022/05/31 02:51:58;;;;;;;10.98;6.18;;;;;;;9.07;100.00;98846.09;4254709;33;20084;-73
2022/05/31 02:54:25;;;;;;;7.68;5.53;;;;;;;9.11;100.00;98853.66;4255328;33;20433;-73
2022/05/31 02:56:55;;;;;;;7.57;5.57;;;;;;;8.96;100.00;98863.09;4253342;33;20038;-73
2022/05/31 02:59:25;;;;;;;8.55;6.00;;;;;;;8.91;100.00;98844.22;4255476;33;20076;-72
2022/05/31 03:01:55;;;;;;;8.93;5.90;;;;;;;8.56;100.00;98804.97;4242247;33;20052;-73
2022/05/31 03:04:43;;;;;;;9.65;4.80;;;;;;;8.99;100.00;98865.28;4249858;33;20050;-73
2022/05/31 03:07:13;;;;;;;8.10;5.37;;;;;;;8.70;100.00;98821.59;4243320;33;20058;-73
2022/05/31 03:09:46;;;;;;;7.93;6.07;;;;;;;8.56;100.00;98804.97;4235305;33;20346;-73
2022/05/31 03:12:17;;;;;;;11.15;5.37;;;;;;;9.13;100.00;98883.78;4240699;33;20054;-72
2022/05/31 03:15:16;;;;;;;11.73;6.05;;;;;;;9.15;100.00;98876.31;4238854;33;20047;-72
2022/05/31 03:17:49;;;;;;;13.82;5.05;;;;;;;9.25;100.00;98877.28;4239373;33;20060;-72
2022/05/31 03:20:33;;;;;;;6.53;5.78;;;;;;;9.25;100.00;98881.81;4253157;33;20047;-73
2022/05/31 03:23:06;;;;;;;11.80;5.80;;;;;;;9.00;100.00;98845.44;4254864;33;20388;-73
2022/05/31 03:25:33;;;;;;;9.70;5.87;;;;;;;8.99;100.00;98825.00;4253336;33;20080;-72
2022/05/31 03:28:02;;;;;;;7.70;5.78;;;;;;;9.24;100.00;98882.91;4251500;33;20060;-73
2022/05/31 03:30:29;;;;;;;9.23;5.95;;;;;;;9.07;100.00;98859.50;4254506;33;20373;-73
2022/05/31 03:32:57;;;;;;;8.95;5.22;;;;;;;8.84;100.00;98838.19;4247320;33;20054;-72
2022/05/31 03:35:24;;;;;;;9.35;5.55;;;;;;;8.96;100.00;98841.63;4249021;33;20057;-73
2022/05/31 03:37:51;;;;;;;9.23;5.87;;;;;;;8.93;100.00;98847.47;4252444;33;20083;-74
2022/05/31 03:43:04;;;;;;;7.78;5.72;;;;;;;9.15;100.00;98885.16;4239487;33;20410;-73
2022/05/31 03:45:40;;;;;;;12.15;7.00;;;;;;;8.96;100.00;98841.63;4240385;33;20116;-73
2022/05/31 03:48:09;;;;;;;7.57;5.57;;;;;;;9.42;100.00;98882.63;4240613;33;20112;-73
2022/05/31 03:50:40;;;;;;;8.63;6.40;;;;;;;9.39;100.00;98877.75;4241201;33;20054;-73
2022/05/31 03:53:09;;;;;;;9.82;5.95;;;;;;;9.39;100.00;98893.06;4240489;33;20039;-73
2022/05/31 03:55:38;;;;;;;15.55;6.03;;;;;;;9.11;100.00;98829.47;4224270;33;20396;-73
2022/05/31 03:58:05;;;;;;;10.88;6.47;;;;;;;9.16;100.00;98834.94;4244539;33;20055;-72
2022/05/31 04:00:33;;;;;;;8.10;6.03;;;;;;;9.35;100.00;98890.06;4236580;33;20043;-73
2022/05/31 04:03:00;;;;;;;9.13;6.00;;;;;;;9.34;100.00;98896.47;4240106;33;20047;-73
2022/05/31 04:05:27;;;;;;;12.57;5.75;;;;;;;9.04;100.00;98851.16;4252183;33;20054;-74
2022/05/31 04:08:00;;;;;;;9.10;5.15;;;;;;;9.11;100.00;98853.66;4240258;33;20064;-74
2022/05/31 04:10:29;;;;;;;12.57;5.47;;;;;;;9.19;100.00;98851.41;4257040;33;20046;-74
2022/05/31 04:12:57;;;;;;;8.82;6.30;;;;;;;9.42;100.00;98858.44;4253041;33;20079;-72
2022/05/31 04:15:28;;;;;;;13.60;5.43;;;;;;;9.49;100.00;98879.78;4234225;33;20084;-74
2022/05/31 04:17:55;;;;;;;11.23;6.90;;;;;;;9.73;100.00;98901.91;4246938;33;20191;-73
2022/05/31 04:20:21;;;;;;;13.40;6.93;;;;;;;9.41;100.00;98854.16;4250386;33;20054;-74
2022/05/31 04:22:47;;;;;;;7.20;5.75;;;;;;;9.70;100.00;98899.72;4250857;33;20088;-74
2022/05/31 04:25:17;;;;;;;10.52;6.62;;;;;;;9.59;100.00;98897.94;4240781;33;20038;-74
2022/05/31 04:27:47;;;;;;;10.93;6.68;;;;;;;9.69;100.00;98908.84;4236234;33;20046;-74
2022/05/31 04:30:18;;;;;;;9.05;6.40;;;;;;;9.37;100.00;98858.37;4247102;33;20061;-74
2022/05/31 04:32:45;;;;;;;11.15;5.78;;;;;;;9.74;100.00;98906.22;4247510;33;20070;-73
2022/05/31 04:35:12;;;;;;;12.25;6.12;;;;;;;9.47;100.00;98862.28;4237019;33;20073;-74
2022/05/31 04:37:39;;;;;;;11.07;5.97;;;;;;;9.85;100.00;98917.13;4236997;33;20131;-74
2022/05/31 04:40:07;;;;;;;9.15;6.00;;;;;;;9.89;100.00;98919.09;4248554;33;20369;-74
2022/05/31 04:42:34;;;;;;;8.48;6.00;;;;;;;9.90;100.00;98893.00;4247955;33;20315;-74
2022/05/31 04:45:02;;;;;;;10.48;6.70;;;;;;;10.02;100.00;98920.59;4248903;33;20051;-74
2022/05/31 04:47:29;;;;;;;10.77;6.60;;;;;;;9.94;100.00;98921.84;4248304;33;20068;-75
2022/05/31 04:49:57;;;;;;;9.80;6.40;;;;;;;10.11;100.00;98927.16;4247526;33;20055;-75
2022/05/31 04:52:25;;;;;;;11.77;6.03;;;;;;;9.91;100.00;98878.50;4249346;33;20072;-73
2022/05/31 04:54:52;;;;;;;10.23;5.93;;;;;;;10.14;100.00;98915.91;4250354;33;20090;-72
2022/05/31 04:57:19;;;;;;;8.40;5.72;;;;;;;10.27;100.00;98919.28;4242930;33;20426;-74
2022/05/31 04:59:47;;;;;;;11.63;6.25;;;;;;;10.37;100.00;98930.22;4248330;33;20065;-74
2022/05/31 05:02:13;;;;;;;20.23;6.90;;;;;;;10.24;100.00;98890.19;4252742;33;20068;-72
2022/05/31 05:04:39;;;;;;;13.23;6.10;;;;;;;10.35;100.00;98889.28;4256075;33;20042;-73
2022/05/31 05:07:07;;;;;;;10.63;6.37;;;;;;;10.61;100.00;98935.31;4250359;33;20064;-73
2022/05/31 05:09:34;;;;;;;12.55;6.57;;;;;;;10.65;100.00;98933.75;4245191;33;20086;-73
2022/05/31 05:12:05;;;;;;;18.85;9.75;;;;;;;10.44;100.00;98893.16;4249031;33;20037;-73
2022/05/31 05:14:33;;;;;;;14.60;6.87;;;;;;;10.76;100.00;98940.87;4244990;33;20042;-73
2022/05/31 05:17:00;;;;;;;17.80;7.68;;;;;;;10.85;100.00;98931.28;4242308;33;20403;-72
2022/05/31 05:19:27;;;;;;;10.15;6.82;;;;;;;10.79;100.00;98936.88;4254627;33;20047;-73
2022/05/31 05:21:54;;;;;;;12.90;6.60;;;;;;;10.63;100.00;98890.13;4249733;33;20050;-73
2022/05/31 05:24:21;;;;;;;14.07;6.15;;;;;;;10.74;100.00;98894.56;4240330;33;20039;-73
2022/05/31 05:26:48;;;;;;;12.82;6.62;;;;;;;10.93;100.00;98921.94;4240675;33;20053;-73
2022/05/31 05:32:08;;;;;;;8.95;6.25;;;;;;;11.14;100.00;98928.34;4241843;33;20068;-73
2022/05/31 05:34:38;;;;;;;7.40;5.60;;;;;;;11.28;100.00;98939.50;4240664;33;20047;-74
2022/05/31 05:37:04;;;;;;;9.18;5.00;;;;;;;11.14;100.00;98922.12;4250124;33;20039;-74
2022/05/31 05:39:31;;;;;;;13.18;6.03;;;;;;;11.20;100.00;98938.09;4254950;33;20066;-74
2022/05/31 05:42:01;;;;;;;8.15;5.55;;;;;;;11.32;100.00;98923.63;4242225;33;20050;-74
2022/05/31 05:44:42;;;;;;;11.77;5.45;;;;;;;11.14;100.00;98885.22;4240254;33;20054;-74
2022/05/31 05:47:14;;;;;;;7.25;5.07;;;;;;;11.17;100.00;98906.25;4240905;33;20062;-73
2022/05/31 05:49:41;;;;;;;;;;;;;;;11.59;100.00;98928.97;4226421;33;20389;-74
2022/05/31 05:52:17;;;;;;;14.32;5.47;;;;;;;11.86;100.00;98947.75;4227964;33;19945;-73
2022/05/31 05:55:04;;;;;;;7.12;5.75;;;;;;;11.85;100.00;98948.81;4229078;33;20088;-73
2022/05/31 05:57:44;;;;;;;11.35;6.03;;;;;;;11.41;100.00;98901.34;4239550;33;20054;-73
2022/05/31 06:00:19;;;;;;;17.23;5.22;;;;;;;11.91;100.00;98953.19;4237749;33;20088;-74
2022/05/31 06:03:11;;;;;;;6.30;5.62;;;;;;;11.73;100.00;98897.78;4239812;33;20064;-73
2022/05/31 06:05:41;;;;;;;7.78;4.35;;;;;;;12.27;100.00;98944.50;4250069;33;20462;-74
2022/05/31 06:08:13;;;;;;;5.57;3.53;;;;;;;12.18;100.00;98949.59;4252052;33;20084;-74
2022/05/31 06:10:59;;;;;;;6.37;4.62;;;;;;;12.28;100.00;98951.53;4255696;33;20076;-73
2022/05/31 06:13:31;;;;;;;5.93;3.75;;;;;;;12.34;100.00;98945.06;4240376;33;20056;-72
2022/05/31 06:15:58;;;;;;;3.97;3.15;;;;;;;12.15;100.00;98907.72;4248630;33;20330;-71
2022/05/31 06:18:31;;;;;;;9.65;3.42;;;;;;;12.25;100.00;98952.84;4244260;33;20039;-71
2022/05/31 06:21:04;;;;;;;7.10;3.30;;;;;;;12.45;100.00;98951.34;4232425;33;20076;-71
2022/05/31 06:23:30;;;;;;;4.45;3.22;;;;;;;12.48;100.00;98946.22;4240125;33;20052;-72
2022/05/31 06:25:58;;;;;;;12.00;3.97;;;;;;;12.46;100.00;98958.34;4249546;33;20111;-72
2022/05/31 06:28:26;;;;;;;3.83;2.70;;;;;;;12.58;100.00;98956.25;4250437;33;20046;-71
2022/05/31 06:30:52;;;;;;;5.95;3.20;;;;;;;12.05;100.00;98871.81;4254599;33;20075;-72
2022/05/31 06:33:20;;;;;;;5.43;3.50;;;;;;;12.61;100.00;98944.91;4254888;33;20039;-74
2022/05/31 06:35:48;;;;;;;2.37;2.17;;;;;;;12.81;100.00;98965.78;4254379;33;20046;-77
2022/05/31 06:38:17;;;;;;;4.62;3.20;;;;;;;12.33;100.00;98901.06;4234516;33;20438;-74
2022/05/31 06:40:44;;;;;;;2.25;2.00;;;;;;;12.87;100.00;98955.78;4246061;33;20065;-72
2022/05/31 06:43:12;;;;;;;2.53;2.22;;;;;;;12.69;100.00;98930.88;4243410;33;20093;-73
2022/05/31 06:45:41;;;;;;;5.32;2.53;;;;;;;12.84;100.00;98921.19;4242573;33;20089;-73
2022/05/31 06:48:10;;;;;;;2.87;2.12;;;;;;;13.22;100.00;98954.22;4251722;33;20059;-73
2022/05/31 06:50:40;;;;;;;2.42;2.20;;;;;;;13.14;100.00;98968.28;4246024;33;20047;-71
2022/05/31 06:59:04;;;;;;;5.22;2.83;;;;;;;13.17;100.00;98929.91;4207470;34;20086;-73
2022/05/31 07:01:31;;;;;;;3.67;3.05;;;;;;;13.47;100.00;98966.19;4236971;33;20074;-73
2022/05/31 07:03:59;;;;;;;4.87;3.00;;;;;;;13.46;100.00;98956.44;4246913;33;20026;-73
2022/05/31 07:06:32;;;;;;;3.95;2.10;;;;;;;13.42;100.00;98921.81;4244899;33;20112;-73
2022/05/31 07:09:02;;;;;;;4.45;1.70;;;;;;;13.75;100.00;98973.75;4243368;33;20099;-73
2022/05/31 07:11:29;;;;;;;1.52;1.42;;;;;;;13.79;100.00;98969.41;4243663;33;20042;-73
2022/05/31 07:14:01;;;;;;;1.52;1.48;;;;;;;13.46;100.00;98937.50;4246022;33;20113;-73
2022/05/31 07:16:31;;;;;;;6.78;1.83;;;;;;;13.72;100.00;98976.19;4247424;33;20085;-73
2022/05/31 07:19:03;;;;;;;4.65;2.08;;;;;;;13.49;100.00;98926.97;4253585;33;20038;-73
2022/05/31 07:21:31;;;;;;;3.12;2.22;;;;;;;13.79;100.00;98945.06;4254377;33;20045;-73
2022/05/31 07:23:57;;;;;;;1.95;1.83;;;;;;;13.99;100.00;98967.75;4252238;33;20084;-73
2022/05/31 07:26:33;;;;;;;3.03;2.62;;;;;;;14.09;100.00;98967.75;4254645;33;20083;-73
2022/05/31 07:29:00;;;;;;;1.67;1.58;;;;;;;13.81;100.00;98971.84;4254983;33;20369;-72
2022/05/31 07:31:27;;;;;;;1.73;1.50;;;;;;;13.89;100.00;98973.19;4240027;33;20060;-73
2022/05/31 07:33:54;;;;;;;3.53;1.17;;;;;;;13.51;100.00;98940.22;4245994;33;20030;-72
2022/05/31 07:36:21;;;;;;;1.92;1.77;;;;;;;13.73;100.00;98932.63;4239913;33;20562;-72
2022/05/31 07:38:49;;;;;;;1.70;1.60;;;;;;;14.03;100.00;98966.13;4244233;33;20039;-73
2022/05/31 07:41:15;;;;;;;2.42;1.80;;;;;;;14.20;100.00;98962.28;4223295;33;20409;-73
2022/05/31 07:43:42;;;;;;;2.15;1.73;;;;;;;14.16;100.00;98957.41;4249936;33;20341;-72
2022/05/31 07:46:13;;;;;;;1.80;1.70;;;;;;;14.29;100.00;98968.78;4241874;33;20368;-72
2022/05/31 07:48:40;;;;;;;4.12;2.35;;;;;;;14.05;100.00;98923.34;4246300;33;20030;-73
2022/05/31 07:51:09;;;;;;;38.15;3.28;;;;;;;14.46;100.00;98961.12;4257132;33;20080;-72
2022/05/31 07:53:45;;;;;;;3.17;1.85;;;;;;;14.11;100.00;98922.25;4254750;33;20038;-73
2022/05/31 07:56:15;;;;;;;2.08;1.87;;;;;;;14.19;100.00;98911.94;4244397;33;20089;-72
2022/05/31 07:58:47;;;;;;;2.80;2.00;;;;;;;14.72;100.00;98958.34;4254564;33;20046;-71
2022/05/31 08:01:22;;;;;;;1.50;1.40;;;;;;;14.53;100.00;98923.72;4247073;33;20483;-72
2022/05/31 08:03:49;;;;;;;2.72;1.98;;;;;;;14.99;100.00;98963.34;4250324;33;20086;-72
2022/05/31 08:06:19;;;;;;;36.42;2.60;;;;;;;14.81;100.00;98961.28;4248144;33;20080;-72
2022/05/31 08:08:46;;;;;;;7.47;2.83;;;;;;;14.74;100.00;98912.78;4250906;33;20062;-71
2022/05/31 08:11:17;;;;;;;3.20;1.73;;;;;;;14.65;100.00;98969.47;4248803;33;20481;-73
2022/05/31 08:13:45;;;;;;;1.62;1.35;;;;;;;14.86;100.00;98964.75;4254710;33;20065;-73
2022/05/31 08:16:16;;;;;;;5.22;1.55;;;;;;;14.97;100.00;98964.72;4256719;33;20131;-72
2022/05/31 08:18:43;;;;;;;1.70;1.60;;;;;;;15.12;100.00;98972.75;4244509;33;20412;-72
2022/05/31 08:21:14;;;;;;;9.30;1.85;;;;;;;14.95;100.00;98928.94;4256801;33;20034;-72
2022/05/31 08:23:41;;;;;;;1.50;1.40;;;;;;;15.33;100.00;98965.28;4254423;33;20050;-72
2022/05/31 08:26:08;;;;;;;1.67;1.15;;;;;;;15.23;100.00;98977.00;4256974;33;20050;-72
2022/05/31 08:28:35;;;;;;;0.88;0.88;;;;;;;15.18;100.00;98968.91;4256671;33;20165;-71
2022/05/31 08:31:04;;;;;;;1.17;1.17;;;;;;;15.22;100.00;98980.84;4256969;33;20123;-72
2022/05/31 08:33:31;;;;;;;3.15;1.60;;;;;;;15.41;100.00;98989.13;4256249;33;20404;-74
2022/05/31 08:35:58;;;;;;;4.50;1.12;;;;;;;15.42;100.00;98987.19;4253146;33;20037;-73
2022/05/31 08:38:24;;;;;;;1.17;1.10;;;;;;;15.35;100.00;98992.12;4243776;33;20473;-73
2022/05/31 08:41:08;;;;;;;3.12;1.60;;;;;;;15.39;100.00;98979.63;4256986;33;20064;-73
2022/05/31 08:43:40;;;;;;;1.73;1.60;;;;;;;15.64;100.00;98983.25;4248783;33;20081;-73
2022/05/31 08:46:14;;;;;;;1.55;1.48;;;;;;;15.40;100.00;98938.66;4250114;33;20050;-71
2022/05/31 08:49:07;;;;;;;3.35;1.30;;;;;;;15.50;100.00;98978.44;4247315;33;20053;-70
2022/05/31 08:51:58;;;;;;;1.60;1.42;;;;;;;15.55;100.00;98986.53;4243221;33;20047;-70
2022/05/31 08:57:38;;;;;;;2.28;1.50;;;;;;;15.64;100.00;98975.91;4241350;33;20111;-70
2022/05/31 09:00:11;;;;;;;1.65;1.52;;;;;;;15.73;100.00;98979.63;4245562;33;20068;-71
2022/05/31 09:03:07;;;;;;;1.87;1.77;;;;;;;15.35;100.00;98954.13;4243483;33;20053;-69
2022/05/31 09:06:00;;;;;;;11.35;1.60;;;;;;;15.71;100.00;98964.72;4256160;33;20471;-69
2022/05/31 09:08:38;;;;;;;1.60;1.50;;;;;;;16.14;100.00;98978.44;4256763;33;20075;-69
2022/05/31 09:11:28;;;;;;;7.20;1.62;;;;;;;16.01;100.00;98979.13;4256145;33;20352;-69
2022/05/31 09:14:20;;;;;;;2.58;1.27;;;;;;;16.06;100.00;98952.72;4254539;33;20077;-69
2022/05/31 09:17:13;;;;;;;4.68;1.87;;;;;;;16.34;100.00;98975.50;4256436;33;20060;-68
2022/05/31 09:19:49;;;;;;;2.70;2.05;;;;;;;16.18;100.00;98993.09;4256681;33;20391;-70
2022/05/31 09:22:16;;;;;;;4.70;1.80;;;;;;;16.42;100.00;98986.81;4243025;33;20056;-71
2022/05/31 09:24:48;;;;;;;1.52;1.40;;;;;;;16.30;100.00;98985.34;4252852;33;20030;-70
2022/05/31 09:27:40;;;;;;;1.92;1.60;;;;;;;16.36;100.00;98977.16;4256288;33;20989;-70
2022/05/31 09:30:24;;;;;;;2.05;1.37;;;;;;;16.48;100.00;98977.53;4256520;33;20123;-70
2022/05/31 09:33:09;;;;;;;1.73;1.40;;;;;;;16.49;100.00;98993.53;4255514;33;20050;-70
2022/05/31 09:35:58;;;;;;;1.20;1.20;;;;;;;16.24;100.00;98943.03;4242963;33;20388;-69
2022/05/31 09:38:34;;;;;;;1.65;1.30;;;;;;;16.54;100.00;98989.97;4253333;33;20384;-69
2022/05/31 09:41:15;;;;;;;1.08;1.05;;;;;;;16.88;100.00;98986.28;4248954;33;20064;-70
2022/05/31 09:43:54;;;;;;;1.30;1.17;;;;;;;16.61;96.16;98995.87;4244749;33;20081;-69
2022/05/31 09:46:41;;;;;;;1.27;1.17;;;;;;;16.11;91.64;98949.16;4228896;33;20035;-69
2022/05/31 09:49:16;;;;;;;1.48;1.20;;;;;;;16.63;95.72;98933.84;4239918;33;20046;-71
2022/05/31 09:51:43;;;;;;;0.98;0.98;;;;;;;16.61;96.10;98941.50;4241102;33;20088;-69
2022/05/31 09:57:11;;;;;;;3.62;2.53;;;;;;;17.24;87.43;98981.16;4241294;33;20072;-69
2022/05/31 09:59:58;;;;;;;1.30;1.25;;;;;;;17.35;89.10;98984.53;4246323;33;20054;-70
2022/05/31 10:02:35;;;;;;;1.35;1.27;;;;;;;17.36;89.30;98977.19;4255518;33;20174;-69
2022/05/31 10:05:23;;;;;;;4.75;1.20;;;;;;;17.45;92.29;98969.16;4253983;33;20087;-69
2022/05/31 10:07:49;;;;;;;0.80;0.80;;;;;;;17.10;88.51;98941.41;4253657;33;20437;-71
2022/05/31 10:10:27;;;;;;;1.20;1.08;;;;;;;17.08;82.86;98987.13;4255958;33;20803;-69
2022/05/31 10:13:09;;;;;;;1.08;1.08;;;;;;;17.57;77.61;98980.41;4255984;33;20047;-70
2022/05/31 10:15:44;;;;;;;1.00;1.00;;;;;;;17.44;73.09;98971.09;4241286;33;20038;-70
2022/05/31 10:18:22;;;;;;;1.35;1.25;;;;;;;16.86;85.98;98980.34;4255801;33;20042;-68
2022/05/31 10:20:57;;;;;;;1.52;1.42;;;;;;;16.91;85.01;98939.47;4255121;33;20076;-68
2022/05/31 10:23:31;;;;;;;1.50;1.50;;;;;;;17.52;85.53;98975.03;4248713;33;20773;-69
2022/05/31 10:26:02;;;;;;;9.48;1.15;;;;;;;17.76;85.22;98972.22;4243015;33;20068;-69
2022/05/31 10:28:36;;;;;;;1.55;1.45;;;;;;;17.97;86.96;98964.50;4255528;33;20064;-69
2022/05/31 10:31:24;;;;;;;3.12;1.20;;;;;;;18.00;89.64;98925.78;4253870;33;20067;-69
2022/05/31 10:33:55;;;;;;;2.05;1.23;;;;;;;18.44;79.24;98962.50;4255772;33;20045;-68
2022/05/31 10:36:25;;;;;;;9.85;1.10;;;;;;;18.36;78.46;98954.25;4253174;33;20081;-69
2022/05/31 10:38:52;;;;;;;1.25;1.25;;;;;;;18.38;78.25;98958.28;4247647;33;20077;-69
2022/05/31 10:41:25;;;;;;;2.78;2.58;;;;;;;18.44;82.14;98962.50;4254027;33;20062;-69
2022/05/31 10:43:59;;;;;;;2.15;1.27;;;;;;;18.68;80.39;98966.94;4253438;33;20086;-68
2022/05/31 10:46:29;;;;;;;7.40;1.80;;;;;;;18.28;66.85;98909.41;4240370;33;20084;-70
2022/05/31 10:49:00;;;;;;;1.20;1.20;;;;;;;18.74;68.63;98957.53;4254993;33;20042;-69
2022/05/31 10:51:54;;;;;;;1.02;1.02;;;;;;;18.02;75.94;98947.28;4254865;33;20056;-69
2022/05/31 10:54:25;;;;;;;1.10;1.10;;;;;;;18.79;76.80;98964.81;4240266;33;20474;-69
2022/05/31 10:57:30;;;;;;;0.93;0.93;;;;;;;18.94;66.91;98920.88;4255026;33;20064;-68
2022/05/31 11:00:20;;;;;;;0.90;0.90;;;;;;;19.49;65.59;98951.78;4208990;33;20046;-69
2022/05/31 11:03:13;;;;;;;1.20;1.20;;;;;;;19.73;60.47;98967.84;4253461;33;20087;-70
2022/05/31 11:06:10;;;;;;;3.10;1.87;;;;;;;20.01;61.90;98907.56;4252857;33;20588;-71
2022/05/31 11:12:05;;;;;;;1.10;1.02;;;;;;;20.09;63.56;98947.81;4253863;33;20061;-72
2022/05/31 11:14:55;;;;;;;2.67;1.02;;;;;;;19.68;58.02;98959.78;4242230;33;20368;-69
2022/05/31 11:17:52;;;;;;;0.95;0.95;;;;;;;19.53;60.32;98941.84;4245864;33;20531;-69
2022/05/31 11:20:32;;;;;;;5.47;1.30;;;;;;;19.73;64.31;98940.53;4257861;33;20425;-69
2022/05/31 11:23:35;;;;;;;4.57;1.20;;;;;;;19.28;66.99;98946.03;4256728;33;20046;-69
2022/05/31 11:26:08;;;;;;;13.75;1.20;;;;;;;19.46;69.58;98904.06;4225865;33;20042;-69
2022/05/31 11:28:34;;;;;;;1.20;1.20;;;;;;;20.16;64.86;98904.44;4256812;33;20449;-70
2022/05/31 11:31:34;;;;;;;2.30;1.20;;;;;;;20.89;54.88;98897.69;4242326;33;20372;-70
2022/05/31 11:34:22;;;;;;;3.55;1.17;;;;;;;20.63;54.86;98934.81;4242964;33;20050;-71
2022/05/31 11:37:07;;;;;;;1.23;1.20;;;;;;;21.00;53.31;98938.09;4257397;33;20068;-71
2022/05/31 11:40:01;;;;;;;4.75;1.00;;;;;;;20.98;50.25;98896.56;4254960;33;20068;-72
2022/05/31 11:42:30;;;;;;;1.45;1.30;;;;;;;21.51;48.57;98934.87;4243241;33;20053;-71
2022/05/31 11:45:03;;;;;;;1.45;1.02;;;;;;;21.19;53.22;98934.25;4241824;33;20068;-72
2022/05/31 11:47:35;;;;;;;2.92;1.50;;;;;;;20.27;57.91;98933.09;4242743;33;20113;-72
2022/05/31 11:50:09;;;;;;;0.80;0.80;;;;;;;20.28;55.76;98901.91;4256614;33;20060;-72
2022/05/31 11:53:10;;;;;;;1.25;1.20;;;;;;;20.92;53.91;98935.34;4256072;33;20426;-72
2022/05/31 11:55:49;;;;;;;1.57;1.47;;;;;;;21.23;54.55;98913.28;4257326;33;20041;-72
2022/05/31 11:58:28;;;;;;;2.75;0.98;;;;;;;22.12;48.98;98927.28;4255621;33;20043;-73
2022/05/31 12:01:01;;;;;;;2.00;1.30;;;;;;;22.59;44.46;98928.34;4256954;33;20059;-73
2022/05/31 12:03:49;;;;;;;1.65;1.15;;;;;;;22.49;47.55;98927.59;4256643;33;20050;-73
2022/05/31 12:06:53;;;;;;;1.35;1.30;;;;;;;22.23;49.07;98915.97;4258385;33;20076;-73
2022/05/31 12:09:42;;;;;;;1.75;1.12;;;;;;;21.89;47.92;98917.69;4249784;33;20471;-73
2022/05/31 12:12:15;;;;;;;1.20;1.20;;;;;;;21.30;44.77;98880.75;4243778;33;20445;-72
2022/05/31 12:14:48;;;;;;;5.35;1.40;;;;;;;21.23;48.58;98916.03;4243708;33;20054;-74
2022/05/31 12:17:17;;;;;;;2.80;1.20;;;;;;;20.54;53.38;98917.56;4234003;33;20266;-73
2022/05/31 12:20:16;;;;;;;1.37;1.00;;;;;;;19.63;61.67;98908.81;4255573;33;20046;-73